sensor_id;sensor_type;location;lat;lon;timestamp;P1;durP1;ratioP1;P2;durP2;ratioP2
2848;SDS011;59355;52.416;13.412;2022-10-22T00:01:32;21.80;;;19.50;;
2848;SDS011;59355;52.416;13.412;2022-10-22T00:03:58;19.33;;;17.33;;
2848;SDS011;59355;52.416;13.412;2022-10-22T00:06:23;16.60;;;14.90;;
2848;SDS011;59355;52.416;13.412;2022-10-22T00:08:49;16.97;;;15.27;;
2848;SDS011;59355;52.416;13.412;2022-10-22T00:11:16;16.80;;;15.20;;
2848;SDS011;59355;52.416;13.412;2022-10-22T00:13:42;15.37;;;13.77;;
2848;SDS011;59355;52.416;13.412;2022-10-22T00:16:08;16.17;;;14.50;;
2848;SDS011;59355;52.416;13.412;2022-10-22T00:18:34;15.43;;;13.73;;
2848;SDS011;59355;52.416;13.412;2022-10-22T00:20:59;16.50;;;14.80;;
2848;SDS011;59355;52.416;13.412;2022-10-22T00:23:25;15.27;;;13.83;;
2848;SDS011;59355;52.416;13.412;2022-10-22T00:25:51;16.13;;;14.63;;
2848;SDS011;59355;52.416;13.412;2022-10-22T00:28:17;16.30;;;14.70;;
2848;SDS011;59355;52.416;13.412;2022-10-22T00:30:42;16.60;;;15.07;;
2848;SDS011;59355;52.416;13.412;2022-10-22T00:33:07;16.60;;;15.07;;
2848;SDS011;59355;52.416;13.412;2022-10-22T00:35:33;15.97;;;14.27;;
2848;SDS011;59355;52.416;13.412;2022-10-22T00:37:58;18.00;;;16.13;;
2848;SDS011;59355;52.416;13.412;2022-10-22T00:40:23;19.87;;;17.37;;
2848;SDS011;59355;52.416;13.412;2022-10-22T00:42:49;19.37;;;16.40;;
2848;SDS011;59355;52.416;13.412;2022-10-22T00:45:16;17.90;;;16.10;;
2848;SDS011;59355;52.416;13.412;2022-10-22T00:47:50;16.30;;;14.70;;
2848;SDS011;59355;52.416;13.412;2022-10-22T00:50:21;17.63;;;15.67;;
2848;SDS011;59355;52.416;13.412;2022-10-22T00:52:56;20.47;;;18.27;;
2848;SDS011;59355;52.416;13.412;2022-10-22T00:55:22;19.37;;;17.30;;
2848;SDS011;59355;52.416;13.412;2022-10-22T00:57:48;22.70;;;18.00;;
2848;SDS011;59355;52.416;13.412;2022-10-22T01:00:13;22.40;;;20.03;;
2848;SDS011;59355;52.416;13.412;2022-10-22T01:02:39;21.37;;;17.93;;
2848;SDS011;59355;52.416;13.412;2022-10-22T01:05:05;21.53;;;19.10;;
2848;SDS011;59355;52.416;13.412;2022-10-22T01:07:30;21.60;;;19.30;;
2848;SDS011;59355;52.416;13.412;2022-10-22T01:09:59;25.30;;;22.13;;
2848;SDS011;59355;52.416;13.412;2022-10-22T01:12:47;24.60;;;21.23;;
2848;SDS011;59355;52.416;13.412;2022-10-22T01:15:23;26.53;;;22.60;;
2848;SDS011;59355;52.416;13.412;2022-10-22T01:20:38;25.30;;;21.13;;
2848;SDS011;59355;52.416;13.412;2022-10-22T01:23:24;23.93;;;21.33;;
2848;SDS011;59355;52.416;13.412;2022-10-22T01:26:03;26.50;;;22.63;;
2848;SDS011;59355;52.416;13.412;2022-10-22T01:31:29;28.40;;;23.00;;
2848;SDS011;59355;52.416;13.412;2022-10-22T01:33:57;22.53;;;19.90;;
2848;SDS011;59355;52.416;13.412;2022-10-22T01:36:23;23.00;;;19.87;;
2848;SDS011;59355;52.416;13.412;2022-10-22T01:38:49;22.20;;;19.63;;
2848;SDS011;59355;52.416;13.412;2022-10-22T01:41:16;23.63;;;19.73;;
2848;SDS011;59355;52.416;13.412;2022-10-22T01:43:41;22.33;;;20.00;;
2848;SDS011;59355;52.416;13.412;2022-10-22T01:46:08;23.90;;;21.37;;
2848;SDS011;59355;52.416;13.412;2022-10-22T01:48:38;26.40;;;20.00;;
2848;SDS011;59355;52.416;13.412;2022-10-22T01:51:41;19.30;;;17.47;;
2848;SDS011;59355;52.416;13.412;2022-10-22T01:54:17;19.63;;;17.63;;
2848;SDS011;59355;52.416;13.412;2022-10-22T01:56:53;21.60;;;19.30;;
2848;SDS011;59355;52.416;13.412;2022-10-22T02:07:56;19.10;;;17.20;;
2848;SDS011;59355;52.416;13.412;2022-10-22T02:10:25;19.17;;;17.17;;
2848;SDS011;59355;52.416;13.412;2022-10-22T02:12:52;18.57;;;16.80;;
2848;SDS011;59355;52.416;13.412;2022-10-22T02:15:18;18.30;;;16.50;;
2848;SDS011;59355;52.416;13.412;2022-10-22T02:17:45;18.83;;;16.93;;
2848;SDS011;59355;52.416;13.412;2022-10-22T02:20:25;19.83;;;17.90;;
2848;SDS011;59355;52.416;13.412;2022-10-22T02:22:52;20.00;;;18.10;;
2848;SDS011;59355;52.416;13.412;2022-10-22T02:25:20;19.37;;;17.43;;
2848;SDS011;59355;52.416;13.412;2022-10-22T02:27:47;19.70;;;16.37;;
2848;SDS011;59355;52.416;13.412;2022-10-22T02:30:14;19.23;;;17.40;;
2848;SDS011;59355;52.416;13.412;2022-10-22T02:32:59;17.93;;;16.20;;
2848;SDS011;59355;52.416;13.412;2022-10-22T02:35:28;18.37;;;16.40;;
2848;SDS011;59355;52.416;13.412;2022-10-22T02:37:54;18.47;;;16.67;;
2848;SDS011;59355;52.416;13.412;2022-10-22T02:40:21;17.87;;;16.17;;
2848;SDS011;59355;52.416;13.412;2022-10-22T02:42:47;21.10;;;18.90;;
2848;SDS011;59355;52.416;13.412;2022-10-22T02:45:14;16.67;;;15.07;;
2848;SDS011;59355;52.416;13.412;2022-10-22T02:47:40;16.33;;;14.53;;
2848;SDS011;59355;52.416;13.412;2022-10-22T02:50:05;23.00;;;19.77;;
2848;SDS011;59355;52.416;13.412;2022-10-22T02:52:31;20.10;;;17.97;;
2848;SDS011;59355;52.416;13.412;2022-10-22T02:54:56;21.83;;;18.80;;
2848;SDS011;59355;52.416;13.412;2022-10-22T02:57:21;23.87;;;20.97;;
2848;SDS011;59355;52.416;13.412;2022-10-22T02:59:47;26.17;;;20.20;;
2848;SDS011;59355;52.416;13.412;2022-10-22T03:02:12;25.90;;;20.10;;
2848;SDS011;59355;52.416;13.412;2022-10-22T03:04:37;21.10;;;18.83;;
2848;SDS011;59355;52.416;13.412;2022-10-22T03:07:03;24.23;;;19.77;;
2848;SDS011;59355;52.416;13.412;2022-10-22T03:09:28;25.20;;;17.70;;
2848;SDS011;59355;52.416;13.412;2022-10-22T03:11:53;21.87;;;19.43;;
2848;SDS011;59355;52.416;13.412;2022-10-22T03:14:18;20.33;;;16.97;;
2848;SDS011;59355;52.416;13.412;2022-10-22T03:16:44;21.70;;;17.57;;
2848;SDS011;59355;52.416;13.412;2022-10-22T03:19:09;24.20;;;20.07;;
2848;SDS011;59355;52.416;13.412;2022-10-22T03:21:39;19.63;;;17.10;;
2848;SDS011;59355;52.416;13.412;2022-10-22T03:24:08;17.47;;;15.70;;
2848;SDS011;59355;52.416;13.412;2022-10-22T03:26:36;17.77;;;15.97;;
2848;SDS011;59355;52.416;13.412;2022-10-22T03:29:02;17.40;;;15.57;;
2848;SDS011;59355;52.416;13.412;2022-10-22T03:31:28;15.33;;;13.83;;
2848;SDS011;59355;52.416;13.412;2022-10-22T03:33:53;15.23;;;13.73;;
2848;SDS011;59355;52.416;13.412;2022-10-22T03:36:18;16.30;;;14.60;;
2848;SDS011;59355;52.416;13.412;2022-10-22T03:38:44;15.13;;;13.73;;
2848;SDS011;59355;52.416;13.412;2022-10-22T03:41:09;15.73;;;14.13;;
2848;SDS011;59355;52.416;13.412;2022-10-22T03:43:34;16.83;;;15.07;;
2848;SDS011;59355;52.416;13.412;2022-10-22T03:46:00;15.47;;;13.90;;
2848;SDS011;59355;52.416;13.412;2022-10-22T03:48:26;15.77;;;14.23;;
2848;SDS011;59355;52.416;13.412;2022-10-22T03:50:51;16.33;;;14.07;;
2848;SDS011;59355;52.416;13.412;2022-10-22T03:53:16;15.20;;;13.70;;
2848;SDS011;59355;52.416;13.412;2022-10-22T03:55:42;14.90;;;13.50;;
2848;SDS011;59355;52.416;13.412;2022-10-22T03:58:07;15.37;;;13.87;;
2848;SDS011;59355;52.416;13.412;2022-10-22T04:00:33;15.27;;;13.73;;
2848;SDS011;59355;52.416;13.412;2022-10-22T04:02:58;17.37;;;14.87;;
2848;SDS011;59355;52.416;13.412;2022-10-22T04:05:24;15.83;;;14.33;;
2848;SDS011;59355;52.416;13.412;2022-10-22T04:07:49;15.13;;;13.53;;
2848;SDS011;59355;52.416;13.412;2022-10-22T04:10:14;14.77;;;13.27;;
2848;SDS011;59355;52.416;13.412;2022-10-22T04:12:40;14.13;;;12.10;;
2848;SDS011;59355;52.416;13.412;2022-10-22T04:15:05;16.67;;;14.93;;
2848;SDS011;59355;52.416;13.412;2022-10-22T04:17:34;17.53;;;15.67;;
2848;SDS011;59355;52.416;13.412;2022-10-22T04:20:00;17.43;;;15.60;;
2848;SDS011;59355;52.416;13.412;2022-10-22T04:22:26;22.40;;;19.30;;
2848;SDS011;59355;52.416;13.412;2022-10-22T04:24:51;24.30;;;20.73;;
2848;SDS011;59355;52.416;13.412;2022-10-22T04:27:16;26.70;;;21.03;;
2848;SDS011;59355;52.416;13.412;2022-10-22T04:29:42;33.07;;;24.53;;
2848;SDS011;59355;52.416;13.412;2022-10-22T04:32:07;30.03;;;21.77;;
2848;SDS011;59355;52.416;13.412;2022-10-22T04:34:32;28.83;;;22.70;;
2848;SDS011;59355;52.416;13.412;2022-10-22T04:36:58;26.83;;;21.80;;
2848;SDS011;59355;52.416;13.412;2022-10-22T04:39:23;27.67;;;23.03;;
2848;SDS011;59355;52.416;13.412;2022-10-22T04:41:48;27.13;;;21.77;;
2848;SDS011;59355;52.416;13.412;2022-10-22T04:44:14;25.30;;;20.90;;
2848;SDS011;59355;52.416;13.412;2022-10-22T04:46:39;25.97;;;20.63;;
2848;SDS011;59355;52.416;13.412;2022-10-22T04:49:04;26.70;;;21.70;;
2848;SDS011;59355;52.416;13.412;2022-10-22T04:51:30;25.80;;;21.23;;
2848;SDS011;59355;52.416;13.412;2022-10-22T04:53:55;28.63;;;21.63;;
2848;SDS011;59355;52.416;13.412;2022-10-22T04:56:24;28.10;;;21.80;;
2848;SDS011;59355;52.416;13.412;2022-10-22T04:59:09;23.97;;;19.07;;
2848;SDS011;59355;52.416;13.412;2022-10-22T05:01:37;19.00;;;16.53;;
2848;SDS011;59355;52.416;13.412;2022-10-22T05:04:04;18.40;;;16.40;;
2848;SDS011;59355;52.416;13.412;2022-10-22T05:06:31;17.80;;;15.93;;
2848;SDS011;59355;52.416;13.412;2022-10-22T05:08:57;18.90;;;16.37;;
2848;SDS011;59355;52.416;13.412;2022-10-22T05:11:26;18.90;;;13.90;;
2848;SDS011;59355;52.416;13.412;2022-10-22T05:13:57;18.00;;;16.10;;
2848;SDS011;59355;52.416;13.412;2022-10-22T05:16:23;19.53;;;15.90;;
2848;SDS011;59355;52.416;13.412;2022-10-22T05:18:49;16.73;;;14.63;;
2848;SDS011;59355;52.416;13.412;2022-10-22T05:21:16;18.87;;;16.70;;
2848;SDS011;59355;52.416;13.412;2022-10-22T05:23:43;15.17;;;13.57;;
2848;SDS011;59355;52.416;13.412;2022-10-22T05:26:10;14.23;;;12.80;;
2848;SDS011;59355;52.416;13.412;2022-10-22T05:28:37;16.07;;;14.10;;
2848;SDS011;59355;52.416;13.412;2022-10-22T05:31:02;16.03;;;14.53;;
2848;SDS011;59355;52.416;13.412;2022-10-22T05:33:29;14.50;;;13.10;;
2848;SDS011;59355;52.416;13.412;2022-10-22T05:35:55;14.77;;;13.27;;
2848;SDS011;59355;52.416;13.412;2022-10-22T05:38:21;13.83;;;12.53;;
2848;SDS011;59355;52.416;13.412;2022-10-22T05:40:47;13.87;;;12.67;;
2848;SDS011;59355;52.416;13.412;2022-10-22T05:43:12;15.00;;;13.40;;
2848;SDS011;59355;52.416;13.412;2022-10-22T05:45:39;14.77;;;13.37;;
2848;SDS011;59355;52.416;13.412;2022-10-22T05:48:05;17.73;;;15.93;;
2848;SDS011;59355;52.416;13.412;2022-10-22T05:50:33;16.33;;;14.53;;
2848;SDS011;59355;52.416;13.412;2022-10-22T05:53:00;14.80;;;13.17;;
2848;SDS011;59355;52.416;13.412;2022-10-22T05:55:25;14.60;;;13.10;;
2848;SDS011;59355;52.416;13.412;2022-10-22T05:57:50;16.00;;;14.40;;
2848;SDS011;59355;52.416;13.412;2022-10-22T06:00:16;14.97;;;13.47;;
2848;SDS011;59355;52.416;13.412;2022-10-22T06:02:41;17.33;;;13.90;;
2848;SDS011;59355;52.416;13.412;2022-10-22T06:05:07;15.07;;;13.57;;
2848;SDS011;59355;52.416;13.412;2022-10-22T06:07:32;14.97;;;13.50;;
2848;SDS011;59355;52.416;13.412;2022-10-22T06:09:58;14.77;;;13.37;;
2848;SDS011;59355;52.416;13.412;2022-10-22T06:12:23;15.10;;;13.70;;
2848;SDS011;59355;52.416;13.412;2022-10-22T06:14:48;15.47;;;13.73;;
2848;SDS011;59355;52.416;13.412;2022-10-22T06:17:14;15.70;;;13.27;;
2848;SDS011;59355;52.416;13.412;2022-10-22T06:19:39;14.27;;;12.90;;
2848;SDS011;59355;52.416;13.412;2022-10-22T06:22:04;13.80;;;12.50;;
2848;SDS011;59355;52.416;13.412;2022-10-22T06:24:30;14.57;;;13.17;;
2848;SDS011;59355;52.416;13.412;2022-10-22T06:26:55;18.83;;;15.30;;
2848;SDS011;59355;52.416;13.412;2022-10-22T06:29:20;15.70;;;14.10;;
2848;SDS011;59355;52.416;13.412;2022-10-22T06:31:46;14.73;;;13.23;;
2848;SDS011;59355;52.416;13.412;2022-10-22T06:34:12;17.80;;;15.93;;
2848;SDS011;59355;52.416;13.412;2022-10-22T06:36:38;18.53;;;16.30;;
2848;SDS011;59355;52.416;13.412;2022-10-22T06:39:05;17.83;;;15.93;;
2848;SDS011;59355;52.416;13.412;2022-10-22T06:41:30;17.73;;;15.87;;
2848;SDS011;59355;52.416;13.412;2022-10-22T06:43:56;19.17;;;14.20;;
2848;SDS011;59355;52.416;13.412;2022-10-22T06:46:22;23.60;;;17.23;;
2848;SDS011;59355;52.416;13.412;2022-10-22T06:48:58;18.73;;;16.30;;
2848;SDS011;59355;52.416;13.412;2022-10-22T06:51:24;20.33;;;18.23;;
2848;SDS011;59355;52.416;13.412;2022-10-22T06:53:50;21.63;;;18.70;;
2848;SDS011;59355;52.416;13.412;2022-10-22T06:56:18;21.50;;;19.20;;
2848;SDS011;59355;52.416;13.412;2022-10-22T06:58:51;19.87;;;17.77;;
2848;SDS011;59355;52.416;13.412;2022-10-22T07:01:18;18.73;;;16.37;;
2848;SDS011;59355;52.416;13.412;2022-10-22T07:03:45;19.53;;;17.53;;
2848;SDS011;59355;52.416;13.412;2022-10-22T07:06:12;19.60;;;17.50;;
2848;SDS011;59355;52.416;13.412;2022-10-22T07:08:38;21.30;;;19.03;;
2848;SDS011;59355;52.416;13.412;2022-10-22T07:11:08;20.60;;;18.40;;
2848;SDS011;59355;52.416;13.412;2022-10-22T07:13:34;20.07;;;17.30;;
2848;SDS011;59355;52.416;13.412;2022-10-22T07:15:59;19.03;;;16.97;;
2848;SDS011;59355;52.416;13.412;2022-10-22T07:18:25;18.40;;;16.50;;
2848;SDS011;59355;52.416;13.412;2022-10-22T07:20:50;18.63;;;16.63;;
2848;SDS011;59355;52.416;13.412;2022-10-22T07:23:16;18.60;;;16.70;;
2848;SDS011;59355;52.416;13.412;2022-10-22T07:25:41;17.10;;;15.30;;
2848;SDS011;59355;52.416;13.412;2022-10-22T07:28:07;19.93;;;16.20;;
2848;SDS011;59355;52.416;13.412;2022-10-22T07:30:33;20.87;;;18.67;;
2848;SDS011;59355;52.416;13.412;2022-10-22T07:32:58;20.00;;;17.90;;
2848;SDS011;59355;52.416;13.412;2022-10-22T07:35:24;21.77;;;18.77;;
2848;SDS011;59355;52.416;13.412;2022-10-22T07:37:49;20.07;;;17.53;;
2848;SDS011;59355;52.416;13.412;2022-10-22T07:40:14;18.27;;;16.47;;
2848;SDS011;59355;52.416;13.412;2022-10-22T07:42:40;16.50;;;14.90;;
2848;SDS011;59355;52.416;13.412;2022-10-22T07:45:05;19.60;;;17.60;;
2848;SDS011;59355;52.416;13.412;2022-10-22T07:47:31;20.50;;;18.33;;
2848;SDS011;59355;52.416;13.412;2022-10-22T07:49:56;21.73;;;19.13;;
2848;SDS011;59355;52.416;13.412;2022-10-22T07:52:22;21.47;;;19.27;;
2848;SDS011;59355;52.416;13.412;2022-10-22T07:54:47;21.77;;;19.57;;
2848;SDS011;59355;52.416;13.412;2022-10-22T07:57:12;23.77;;;21.07;;
2848;SDS011;59355;52.416;13.412;2022-10-22T07:59:38;22.63;;;20.23;;
2848;SDS011;59355;52.416;13.412;2022-10-22T08:02:03;22.83;;;20.50;;
2848;SDS011;59355;52.416;13.412;2022-10-22T08:04:28;21.87;;;19.67;;
2848;SDS011;59355;52.416;13.412;2022-10-22T08:06:54;20.67;;;18.53;;
2848;SDS011;59355;52.416;13.412;2022-10-22T08:09:19;21.73;;;19.53;;
2848;SDS011;59355;52.416;13.412;2022-10-22T08:11:44;21.47;;;19.27;;
2848;SDS011;59355;52.416;13.412;2022-10-22T08:14:10;20.03;;;18.00;;
2848;SDS011;59355;52.416;13.412;2022-10-22T08:16:36;19.67;;;17.77;;
2848;SDS011;59355;52.416;13.412;2022-10-22T08:19:01;20.70;;;18.60;;
2848;SDS011;59355;52.416;13.412;2022-10-22T08:21:26;20.30;;;18.07;;
2848;SDS011;59355;52.416;13.412;2022-10-22T08:23:53;19.27;;;17.37;;
2848;SDS011;59355;52.416;13.412;2022-10-22T08:26:18;19.93;;;17.83;;
2848;SDS011;59355;52.416;13.412;2022-10-22T08:28:43;22.63;;;18.97;;
2848;SDS011;59355;52.416;13.412;2022-10-22T08:31:08;25.27;;;20.57;;
2848;SDS011;59355;52.416;13.412;2022-10-22T08:33:34;20.07;;;18.23;;
2848;SDS011;59355;52.416;13.412;2022-10-22T08:35:59;20.83;;;18.83;;
2848;SDS011;59355;52.416;13.412;2022-10-22T08:38:25;23.07;;;20.40;;
2848;SDS011;59355;52.416;13.412;2022-10-22T08:40:52;24.60;;;22.00;;
2848;SDS011;59355;52.416;13.412;2022-10-22T08:46:16;28.00;;;23.70;;
2848;SDS011;59355;52.416;13.412;2022-10-22T08:48:53;21.47;;;19.20;;
2848;SDS011;59355;52.416;13.412;2022-10-22T08:51:22;25.57;;;21.83;;
2848;SDS011;59355;52.416;13.412;2022-10-22T08:54:00;25.70;;;21.33;;
2848;SDS011;59355;52.416;13.412;2022-10-22T08:56:29;22.10;;;19.63;;
2848;SDS011;59355;52.416;13.412;2022-10-22T08:59:00;25.40;;;20.87;;
2848;SDS011;59355;52.416;13.412;2022-10-22T09:01:43;21.00;;;18.70;;
2848;SDS011;59355;52.416;13.412;2022-10-22T09:04:35;21.13;;;18.93;;
2848;SDS011;59355;52.416;13.412;2022-10-22T09:07:05;20.20;;;18.20;;
2848;SDS011;59355;52.416;13.412;2022-10-22T09:09:33;20.13;;;18.03;;
2848;SDS011;59355;52.416;13.412;2022-10-22T09:12:03;23.53;;;18.20;;
2848;SDS011;59355;52.416;13.412;2022-10-22T09:14:29;20.30;;;17.97;;
2848;SDS011;59355;52.416;13.412;2022-10-22T09:17:01;19.87;;;17.87;;
2848;SDS011;59355;52.416;13.412;2022-10-22T09:19:44;18.50;;;16.60;;
2848;SDS011;59355;52.416;13.412;2022-10-22T09:22:26;20.43;;;17.33;;
2848;SDS011;59355;52.416;13.412;2022-10-22T09:25:22;17.93;;;15.97;;
2848;SDS011;59355;52.416;13.412;2022-10-22T09:27:50;26.10;;;17.90;;
2848;SDS011;59355;52.416;13.412;2022-10-22T09:30:19;19.10;;;17.20;;
2848;SDS011;59355;52.416;13.412;2022-10-22T09:32:47;18.43;;;16.50;;
2848;SDS011;59355;52.416;13.412;2022-10-22T09:35:21;19.03;;;17.17;;
2848;SDS011;59355;52.416;13.412;2022-10-22T09:37:48;18.40;;;15.60;;
2848;SDS011;59355;52.416;13.412;2022-10-22T09:40:15;17.00;;;15.23;;
2848;SDS011;59355;52.416;13.412;2022-10-22T09:42:41;17.40;;;15.87;;
2848;SDS011;59355;52.416;13.412;2022-10-22T09:45:14;16.83;;;15.20;;
2848;SDS011;59355;52.416;13.412;2022-10-22T09:47:43;16.00;;;14.30;;
2848;SDS011;59355;52.416;13.412;2022-10-22T09:50:17;15.77;;;14.17;;
2848;SDS011;59355;52.416;13.412;2022-10-22T09:52:57;16.97;;;15.13;;
2848;SDS011;59355;52.416;13.412;2022-10-22T09:55:28;16.23;;;14.47;;
2848;SDS011;59355;52.416;13.412;2022-10-22T09:57:54;17.87;;;16.00;;
2848;SDS011;59355;52.416;13.412;2022-10-22T10:00:21;17.23;;;15.60;;
2848;SDS011;59355;52.416;13.412;2022-10-22T10:02:52;17.17;;;15.57;;
2848;SDS011;59355;52.416;13.412;2022-10-22T10:05:19;17.17;;;15.57;;
2848;SDS011;59355;52.416;13.412;2022-10-22T10:07:45;15.00;;;13.57;;
2848;SDS011;59355;52.416;13.412;2022-10-22T10:10:45;15.33;;;13.73;;
2848;SDS011;59355;52.416;13.412;2022-10-22T10:15:52;13.40;;;12.03;;
2848;SDS011;59355;52.416;13.412;2022-10-22T10:20:57;14.83;;;13.20;;
2848;SDS011;59355;52.416;13.412;2022-10-22T10:26:57;15.37;;;13.67;;
2848;SDS011;59355;52.416;13.412;2022-10-22T10:29:40;14.87;;;13.47;;
2848;SDS011;59355;52.416;13.412;2022-10-22T10:35:18;13.20;;;11.90;;
2848;SDS011;59355;52.416;13.412;2022-10-22T10:37:59;13.50;;;12.07;;
2848;SDS011;59355;52.416;13.412;2022-10-22T10:40:36;14.80;;;12.80;;
2848;SDS011;59355;52.416;13.412;2022-10-22T10:43:20;14.40;;;12.90;;
2848;SDS011;59355;52.416;13.412;2022-10-22T10:46:11;13.97;;;12.60;;
2848;SDS011;59355;52.416;13.412;2022-10-22T10:49:00;14.13;;;12.60;;
2848;SDS011;59355;52.416;13.412;2022-10-22T10:54:30;20.40;;;15.53;;
2848;SDS011;59355;52.416;13.412;2022-10-22T10:57:18;17.07;;;15.30;;
2848;SDS011;59355;52.416;13.412;2022-10-22T11:00:04;14.60;;;13.17;;
2848;SDS011;59355;52.416;13.412;2022-10-22T11:02:44;15.83;;;14.40;;
2848;SDS011;59355;52.416;13.412;2022-10-22T11:05:22;17.40;;;14.77;;
2848;SDS011;59355;52.416;13.412;2022-10-22T11:07:53;15.37;;;13.87;;
2848;SDS011;59355;52.416;13.412;2022-10-22T11:10:43;17.23;;;13.83;;
2848;SDS011;59355;52.416;13.412;2022-10-22T11:13:11;17.90;;;15.63;;
2848;SDS011;59355;52.416;13.412;2022-10-22T11:15:41;19.97;;;14.73;;
2848;SDS011;59355;52.416;13.412;2022-10-22T11:18:16;15.03;;;13.47;;
2848;SDS011;59355;52.416;13.412;2022-10-22T11:20:52;15.77;;;14.27;;
2848;SDS011;59355;52.416;13.412;2022-10-22T11:23:23;14.00;;;12.70;;
2848;SDS011;59355;52.416;13.412;2022-10-22T11:25:54;13.50;;;12.20;;
2848;SDS011;59355;52.416;13.412;2022-10-22T11:28:22;15.07;;;13.07;;
2848;SDS011;59355;52.416;13.412;2022-10-22T11:31:02;14.13;;;12.80;;
2848;SDS011;59355;52.416;13.412;2022-10-22T11:33:32;17.23;;;13.43;;
2848;SDS011;59355;52.416;13.412;2022-10-22T11:36:03;16.00;;;12.70;;
2848;SDS011;59355;52.416;13.412;2022-10-22T11:38:30;13.60;;;12.30;;
2848;SDS011;59355;52.416;13.412;2022-10-22T11:41:01;14.60;;;13.10;;
2848;SDS011;59355;52.416;13.412;2022-10-22T11:43:31;12.43;;;11.20;;
2848;SDS011;59355;52.416;13.412;2022-10-22T11:46:24;12.33;;;11.00;;
2848;SDS011;59355;52.416;13.412;2022-10-22T11:49:13;12.50;;;11.20;;
2848;SDS011;59355;52.416;13.412;2022-10-22T11:51:42;13.40;;;12.00;;
2848;SDS011;59355;52.416;13.412;2022-10-22T11:56:56;13.00;;;11.10;;
2848;SDS011;59355;52.416;13.412;2022-10-22T11:59:38;12.90;;;10.13;;
2848;SDS011;59355;52.416;13.412;2022-10-22T12:02:21;15.03;;;11.20;;
2848;SDS011;59355;52.416;13.412;2022-10-22T12:04:47;11.73;;;9.90;;
2848;SDS011;59355;52.416;13.412;2022-10-22T12:07:30;11.57;;;10.33;;
2848;SDS011;59355;52.416;13.412;2022-10-22T12:09:57;9.90;;;8.90;;
2848;SDS011;59355;52.416;13.412;2022-10-22T12:12:22;11.17;;;9.07;;
2848;SDS011;59355;52.416;13.412;2022-10-22T12:14:52;11.07;;;8.87;;
2848;SDS011;59355;52.416;13.412;2022-10-22T12:17:19;10.60;;;8.40;;
2848;SDS011;59355;52.416;13.412;2022-10-22T12:19:46;11.17;;;8.50;;
2848;SDS011;59355;52.416;13.412;2022-10-22T12:24:42;10.40;;;7.30;;
2848;SDS011;59355;52.416;13.412;2022-10-22T12:27:17;7.87;;;7.17;;
2848;SDS011;59355;52.416;13.412;2022-10-22T12:29:46;9.70;;;7.33;;
2848;SDS011;59355;52.416;13.412;2022-10-22T12:32:12;8.20;;;5.63;;
2848;SDS011;59355;52.416;13.412;2022-10-22T12:34:46;10.60;;;6.23;;
2848;SDS011;59355;52.416;13.412;2022-10-22T12:37:13;6.77;;;6.07;;
2848;SDS011;59355;52.416;13.412;2022-10-22T12:39:40;8.73;;;5.50;;
2848;SDS011;59355;52.416;13.412;2022-10-22T12:42:06;5.47;;;4.97;;
2848;SDS011;59355;52.416;13.412;2022-10-22T12:44:34;6.03;;;5.43;;
2848;SDS011;59355;52.416;13.412;2022-10-22T12:46:59;5.77;;;5.03;;
2848;SDS011;59355;52.416;13.412;2022-10-22T12:49:33;6.13;;;5.20;;
2848;SDS011;59355;52.416;13.412;2022-10-22T12:52:05;7.90;;;4.10;;
2848;SDS011;59355;52.416;13.412;2022-10-22T12:54:33;5.10;;;3.90;;
2848;SDS011;59355;52.416;13.412;2022-10-22T12:56:58;6.10;;;3.80;;
2848;SDS011;59355;52.416;13.412;2022-10-22T12:59:25;6.40;;;4.53;;
2848;SDS011;59355;52.416;13.412;2022-10-22T13:01:52;5.50;;;4.37;;
2848;SDS011;59355;52.416;13.412;2022-10-22T13:04:36;6.70;;;4.50;;
2848;SDS011;59355;52.416;13.412;2022-10-22T13:09:38;5.93;;;4.20;;
2848;SDS011;59355;52.416;13.412;2022-10-22T13:12:05;6.83;;;3.90;;
2848;SDS011;59355;52.416;13.412;2022-10-22T13:14:35;5.37;;;3.80;;
2848;SDS011;59355;52.416;13.412;2022-10-22T13:17:12;4.90;;;3.90;;
2848;SDS011;59355;52.416;13.412;2022-10-22T13:19:49;4.03;;;3.70;;
2848;SDS011;59355;52.416;13.412;2022-10-22T13:22:30;4.83;;;3.37;;
2848;SDS011;59355;52.416;13.412;2022-10-22T13:25:41;4.00;;;3.60;;
2848;SDS011;59355;52.416;13.412;2022-10-22T13:27:45;7.17;;;3.80;;
2848;SDS011;59355;52.416;13.412;2022-10-22T13:30:20;4.73;;;3.17;;
2848;SDS011;59355;52.416;13.412;2022-10-22T13:32:52;6.57;;;3.77;;
2848;SDS011;59355;52.416;13.412;2022-10-22T13:35:20;6.70;;;3.97;;
2848;SDS011;59355;52.416;13.412;2022-10-22T13:37:48;6.83;;;3.63;;
2848;SDS011;59355;52.416;13.412;2022-10-22T13:40:13;6.50;;;3.83;;
2848;SDS011;59355;52.416;13.412;2022-10-22T13:42:39;5.17;;;3.43;;
2848;SDS011;59355;52.416;13.412;2022-10-22T13:45:04;3.73;;;3.30;;
2848;SDS011;59355;52.416;13.412;2022-10-22T13:47:30;7.10;;;4.27;;
2848;SDS011;59355;52.416;13.412;2022-10-22T13:49:56;4.93;;;3.60;;
2848;SDS011;59355;52.416;13.412;2022-10-22T13:52:26;7.23;;;3.30;;
2848;SDS011;59355;52.416;13.412;2022-10-22T13:54:53;6.17;;;3.80;;
2848;SDS011;59355;52.416;13.412;2022-10-22T13:57:19;4.80;;;3.50;;
2848;SDS011;59355;52.416;13.412;2022-10-22T13:59:44;5.30;;;3.00;;
2848;SDS011;59355;52.416;13.412;2022-10-22T14:02:10;4.47;;;3.33;;
2848;SDS011;59355;52.416;13.412;2022-10-22T14:04:36;5.43;;;2.90;;
2848;SDS011;59355;52.416;13.412;2022-10-22T14:07:06;4.80;;;3.60;;
2848;SDS011;59355;52.416;13.412;2022-10-22T14:09:36;5.93;;;3.10;;
2848;SDS011;59355;52.416;13.412;2022-10-22T14:12:01;5.23;;;3.33;;
2848;SDS011;59355;52.416;13.412;2022-10-22T14:14:27;10.13;;;3.33;;
2848;SDS011;59355;52.416;13.412;2022-10-22T14:16:52;9.47;;;3.80;;
2848;SDS011;59355;52.416;13.412;2022-10-22T14:19:17;5.00;;;3.30;;
2848;SDS011;59355;52.416;13.412;2022-10-22T14:21:43;5.57;;;3.40;;
2848;SDS011;59355;52.416;13.412;2022-10-22T14:24:08;5.10;;;3.37;;
2848;SDS011;59355;52.416;13.412;2022-10-22T14:26:34;5.03;;;3.10;;
2848;SDS011;59355;52.416;13.412;2022-10-22T14:29:00;4.87;;;3.00;;
2848;SDS011;59355;52.416;13.412;2022-10-22T14:31:25;4.87;;;3.53;;
2848;SDS011;59355;52.416;13.412;2022-10-22T14:33:51;4.43;;;3.10;;
2848;SDS011;59355;52.416;13.412;2022-10-22T14:36:17;5.50;;;3.57;;
2848;SDS011;59355;52.416;13.412;2022-10-22T14:38:43;3.80;;;3.00;;
2848;SDS011;59355;52.416;13.412;2022-10-22T14:41:19;6.60;;;3.77;;
2848;SDS011;59355;52.416;13.412;2022-10-22T14:43:46;4.23;;;3.03;;
2848;SDS011;59355;52.416;13.412;2022-10-22T14:46:14;7.40;;;3.00;;
2848;SDS011;59355;52.416;13.412;2022-10-22T14:48:40;8.30;;;3.70;;
2848;SDS011;59355;52.416;13.412;2022-10-22T14:51:06;5.50;;;3.77;;
2848;SDS011;59355;52.416;13.412;2022-10-22T14:53:31;7.37;;;3.53;;
2848;SDS011;59355;52.416;13.412;2022-10-22T14:55:57;4.63;;;3.30;;
2848;SDS011;59355;52.416;13.412;2022-10-22T14:58:23;5.70;;;3.60;;
2848;SDS011;59355;52.416;13.412;2022-10-22T15:00:51;5.87;;;3.13;;
2848;SDS011;59355;52.416;13.412;2022-10-22T15:03:17;5.83;;;3.70;;
2848;SDS011;59355;52.416;13.412;2022-10-22T15:05:42;10.10;;;4.20;;
2848;SDS011;59355;52.416;13.412;2022-10-22T15:08:08;3.97;;;3.57;;
2848;SDS011;59355;52.416;13.412;2022-10-22T15:10:36;5.87;;;3.50;;
2848;SDS011;59355;52.416;13.412;2022-10-22T15:13:01;4.33;;;3.23;;
2848;SDS011;59355;52.416;13.412;2022-10-22T15:15:27;4.50;;;3.40;;